CFQBC CSU3-CYHU
Flight info
| Callsign | CFQBC |
|---|---|
| Flight time | 0h 25m |
| Altitude | 2500 |
| Route | CIRCUIT VILLE MARIE |
| Aircraft | DA40/L-SDFGRWY/S |
Departure
| Time | 2026-04-24 18:55 |
|---|---|
| Airport | Saint-Hyacinthe Aerodrome (CSU3) |
Arrival
| Time | 2026-04-24 19:20 |
|---|---|
| Airport | Montréal / Saint-Hubert Metropolitan Airport (CYHU) |
| Time | Latitude | Longitude | Altitude | Speed | Heading |
|---|---|---|---|---|---|
| 2026-04-24 18:54 | 45.62075 | -73.01479 | 1229 ft | 72 kts | 0° |
| 2026-04-24 18:55 | 45.62704 | -73.02298 | 1996 ft | 84 kts | 286° |
| 2026-04-24 18:55 | 45.62694 | -73.03129 | 2393 ft | 91 kts | 257° |
| 2026-04-24 18:55 | 45.62416 | -73.04024 | 2528 ft | 108 kts | 256° |
| 2026-04-24 18:56 | 45.62149 | -73.05115 | 2529 ft | 122 kts | 257° |
| 2026-04-24 18:56 | 45.61870 | -73.06287 | 2527 ft | 125 kts | 256° |
| 2026-04-24 18:56 | 45.61575 | -73.07470 | 2528 ft | 127 kts | 256° |
| 2026-04-24 18:56 | 45.61273 | -73.08642 | 2528 ft | 126 kts | 255° |
| 2026-04-24 18:57 | 45.60981 | -73.09848 | 2529 ft | 129 kts | 255° |
| 2026-04-24 18:57 | 45.60693 | -73.11074 | 2530 ft | 130 kts | 256° |
| 2026-04-24 18:57 | 45.60553 | -73.12309 | 2513 ft | 126 kts | 274° |
| 2026-04-24 18:57 | 45.60523 | -73.13557 | 2508 ft | 125 kts | 273° |
| 2026-04-24 18:58 | 45.60493 | -73.14796 | 2507 ft | 125 kts | 273° |
| 2026-04-24 18:58 | 45.60475 | -73.16021 | 2504 ft | 124 kts | 274° |
| 2026-04-24 18:58 | 45.60463 | -73.17256 | 2505 ft | 124 kts | 272° |
| 2026-04-24 18:58 | 45.60337 | -73.18498 | 2503 ft | 129 kts | 263° |
| 2026-04-24 18:59 | 45.60172 | -73.19743 | 2504 ft | 126 kts | 264° |
| 2026-04-24 18:59 | 45.60003 | -73.20994 | 2503 ft | 130 kts | 264° |
| 2026-04-24 18:59 | 45.59821 | -73.22257 | 2508 ft | 130 kts | 264° |
| 2026-04-24 18:59 | 45.59631 | -73.23510 | 2503 ft | 129 kts | 262° |
| 2026-04-24 19:00 | 45.59448 | -73.24765 | 2500 ft | 128 kts | 264° |
| 2026-04-24 19:00 | 45.59275 | -73.26019 | 2498 ft | 129 kts | 264° |
| 2026-04-24 19:00 | 45.59088 | -73.27284 | 2504 ft | 132 kts | 263° |
| 2026-04-24 19:00 | 45.58905 | -73.28557 | 2499 ft | 131 kts | 265° |
| 2026-04-24 19:01 | 45.58709 | -73.29827 | 2506 ft | 129 kts | 264° |
| 2026-04-24 19:01 | 45.58523 | -73.31090 | 2506 ft | 131 kts | 267° |
| 2026-04-24 19:01 | 45.58372 | -73.32368 | 2509 ft | 133 kts | 267° |
| 2026-04-24 19:01 | 45.58219 | -73.33674 | 2506 ft | 132 kts | 267° |
| 2026-04-24 19:02 | 45.58117 | -73.34526 | 2505 ft | 130 kts | 266° |
| 2026-04-24 19:02 | 45.57933 | -73.36204 | 2503 ft | 128 kts | 267° |
| 2026-04-24 19:02 | 45.57802 | -73.37462 | 2502 ft | 127 kts | 266° |
| 2026-04-24 19:02 | 45.57671 | -73.38692 | 2501 ft | 126 kts | 267° |
| 2026-04-24 19:03 | 45.57549 | -73.39933 | 2498 ft | 126 kts | 268° |
| 2026-04-24 19:03 | 45.57421 | -73.41185 | 2493 ft | 127 kts | 267° |
| 2026-04-24 19:03 | 45.57388 | -73.42419 | 2493 ft | 125 kts | 278° |
| 2026-04-24 19:03 | 45.57418 | -73.43664 | 2490 ft | 125 kts | 277° |
| 2026-04-24 19:04 | 45.57437 | -73.44886 | 2491 ft | 124 kts | 277° |
| 2026-04-24 19:04 | 45.57460 | -73.46128 | 2493 ft | 125 kts | 277° |
| 2026-04-24 19:04 | 45.57489 | -73.47363 | 2493 ft | 125 kts | 277° |
| 2026-04-24 19:04 | 45.57514 | -73.48616 | 2493 ft | 126 kts | 277° |
| 2026-04-24 19:05 | 45.57542 | -73.49873 | 2495 ft | 126 kts | 277° |
| 2026-04-24 19:05 | 45.57460 | -73.51114 | 2505 ft | 128 kts | 261° |
| 2026-04-24 19:05 | 45.57250 | -73.52359 | 2512 ft | 129 kts | 261° |
| 2026-04-24 19:05 | 45.56993 | -73.53598 | 2501 ft | 131 kts | 243° |
| 2026-04-24 19:06 | 45.56557 | -73.54712 | 2510 ft | 129 kts | 249° |
| 2026-04-24 19:06 | 45.56242 | -73.55948 | 2387 ft | 135 kts | 254° |
| 2026-04-24 19:06 | 45.55782 | -73.57135 | 2249 ft | 141 kts | 225° |
| 2026-04-24 19:06 | 45.54974 | -73.57922 | 2111 ft | 143 kts | 214° |
| 2026-04-24 19:07 | 45.54442 | -73.58470 | 2028 ft | 141 kts | 222° |
| 2026-04-24 19:07 | 45.53454 | -73.59622 | 1991 ft | 133 kts | 224° |
| 2026-04-24 19:07 | 45.52988 | -73.60182 | 1980 ft | 132 kts | 212° |
| 2026-04-24 19:07 | 45.51922 | -73.61039 | 1982 ft | 131 kts | 210° |
| 2026-04-24 19:08 | 45.51073 | -73.61527 | 1985 ft | 131 kts | 194° |
| 2026-04-24 19:08 | 45.50226 | -73.61919 | 2009 ft | 129 kts | 200° |
| 2026-04-24 19:08 | 45.49677 | -73.62261 | 2004 ft | 130 kts | 208° |
| 2026-04-24 19:08 | 45.48594 | -73.63019 | 2001 ft | 131 kts | 191° |
| 2026-04-24 19:09 | 45.47722 | -73.62820 | 2001 ft | 127 kts | 145° |
| 2026-04-24 19:09 | 45.47258 | -73.62314 | 2002 ft | 126 kts | 137° |
| 2026-04-24 19:09 | 45.46597 | -73.61485 | 1999 ft | 125 kts | 121° |
| 2026-04-24 19:09 | 45.46427 | -73.60330 | 1996 ft | 119 kts | 71° |
| 2026-04-24 19:10 | 45.46880 | -73.59384 | 1988 ft | 116 kts | 51° |
| 2026-04-24 19:10 | 45.47343 | -73.58459 | 1985 ft | 115 kts | 53° |
| 2026-04-24 19:10 | 45.47800 | -73.57532 | 1993 ft | 115 kts | 52° |
| 2026-04-24 19:10 | 45.48360 | -73.56727 | 2009 ft | 114 kts | 33° |
| 2026-04-24 19:11 | 45.49059 | -73.56186 | 2004 ft | 115 kts | 27° |
| 2026-04-24 19:11 | 45.49753 | -73.55664 | 2009 ft | 113 kts | 27° |
| 2026-04-24 19:11 | 45.50444 | -73.55138 | 2007 ft | 111 kts | 27° |
| 2026-04-24 19:11 | 45.51127 | -73.54619 | 2009 ft | 110 kts | 27° |
| 2026-04-24 19:12 | 45.51805 | -73.54117 | 2002 ft | 111 kts | 24° |
| 2026-04-24 19:12 | 45.52544 | -73.53818 | 2003 ft | 111 kts | 10° |
| 2026-04-24 19:12 | 45.53302 | -73.53624 | 2003 ft | 109 kts | 11° |
| 2026-04-24 19:12 | 45.54046 | -73.53432 | 2002 ft | 110 kts | 11° |
| 2026-04-24 19:13 | 45.54559 | -73.53301 | 2007 ft | 112 kts | 11° |
| 2026-04-24 19:13 | 45.55586 | -73.53033 | 2010 ft | 114 kts | 11° |
| 2026-04-24 19:13 | 45.56371 | -73.52826 | 2011 ft | 114 kts | 11° |
| 2026-04-24 19:13 | 45.57158 | -73.52617 | 2008 ft | 114 kts | 11° |
| 2026-04-24 19:14 | 45.57921 | -73.52373 | 2002 ft | 114 kts | 25° |
| 2026-04-24 19:14 | 45.58349 | -73.51459 | 1997 ft | 118 kts | 79° |
| 2026-04-24 19:14 | 45.58210 | -73.50299 | 1999 ft | 121 kts | 101° |
| 2026-04-24 19:14 | 45.57969 | -73.49149 | 1996 ft | 120 kts | 101° |
| 2026-04-24 19:15 | 45.57736 | -73.48001 | 2001 ft | 120 kts | 102° |
| 2026-04-24 19:15 | 45.57515 | -73.46843 | 2004 ft | 121 kts | 101° |
| 2026-04-24 19:15 | 45.57129 | -73.45801 | 1995 ft | 126 kts | 140° |
| 2026-04-24 19:15 | 45.56292 | -73.45385 | 1998 ft | 128 kts | 163° |
| 2026-04-24 19:16 | 45.54557 | -73.44724 | 1968 ft | 133 kts | 162° |
| 2026-04-24 19:16 | 45.53632 | -73.44424 | 1840 ft | 139 kts | 178° |
| 2026-04-24 19:16 | 45.52759 | -73.44980 | 1706 ft | 142 kts | 223° |
| 2026-04-24 19:17 | 45.52014 | -73.45901 | 1581 ft | 144 kts | 221° |
| 2026-04-24 19:17 | 45.51242 | -73.46825 | 1379 ft | 148 kts | 217° |
| 2026-04-24 19:17 | 45.50380 | -73.47127 | 1232 ft | 120 kts | 155° |
| 2026-04-24 19:17 | 45.49794 | -73.46401 | 957 ft | 108 kts | 129° |
| 2026-04-24 19:18 | 45.49344 | -73.45631 | 773 ft | 93 kts | 105° |
| 2026-04-24 19:18 | 45.49370 | -73.44812 | 619 ft | 80 kts | 65° |
| 2026-04-24 19:18 | 45.49602 | -73.44160 | 589 ft | 66 kts | 49° |
| 2026-04-24 19:18 | 45.49879 | -73.43659 | 541 ft | 64 kts | 42° |
| 2026-04-24 19:19 | 45.50195 | -73.43209 | 523 ft | 64 kts | 40° |
| 2026-04-24 19:19 | 45.50524 | -73.42719 | 471 ft | 72 kts | 44° |
| 2026-04-24 19:19 | 45.50866 | -73.42193 | 290 ft | 70 kts | 44° |
| 2026-04-24 19:19 | 45.51180 | -73.41713 | 141 ft | 62 kts | 43° |
| 2026-04-24 19:20 | 45.51446 | -73.41305 | 94 ft | 51 kts | 41° |
| 2026-04-24 19:20 | 45.51640 | -73.41009 | 92 ft | 31 kts | 49° |
| 2026-04-24 19:20 | 45.51638 | -73.40883 | 94 ft | 5 kts | 141° |
| 2026-04-24 19:20 | 45.51636 | -73.40882 | 94 ft | 0 kts | 140° |
| 2026-04-24 19:21 | 45.51627 | -73.40880 | 93 ft | 4 kts | 186° |
| 2026-04-24 19:21 | 45.51593 | -73.40905 | 94 ft | 6 kts | 223° |
| 2026-04-24 19:21 | 45.51558 | -73.40903 | 93 ft | 5 kts | 134° |
| 2026-04-24 19:22 | 45.51535 | -73.40876 | 93 ft | 8 kts | 146° |
| 2026-04-24 19:22 | 45.51476 | -73.40806 | 93 ft | 6 kts | 133° |
| 2026-04-24 19:22 | 45.51465 | -73.40774 | 95 ft | 0 kts | 6° |